Time;durP1;ratioP1;P1;durP2;ratioP2;P2;SDS_P1;SDS_P2;PMS_P1;PMS_P2;Temp;Humidity;BMP_temperature;BMP_pressure;BME280_temperature;BME280_humidity;BME280_pressure;Samples;Min_cycle;Max_cycle;Signal;HPM_P1;HPM_P2
2021/06/18 00:00:26;;;;;;;6.00;4.75;;;;;;;16.39;60.81;101211.79;1758810;79;27555;-77
2021/06/18 00:02:55;;;;;;;11.03;4.90;;;;;;;16.34;61.12;101207.55;1722906;80;25978;-77
2021/06/18 00:05:22;;;;;;;7.90;5.05;;;;;;;16.26;60.98;101204.52;1744085;80;25867;-77
2021/06/18 00:07:50;;;;;;;5.85;4.95;;;;;;;16.20;61.15;101201.31;1729957;81;26059;-77
2021/06/18 00:10:22;;;;;;;9.48;5.40;;;;;;;16.14;61.13;101201.61;1745862;80;25825;-77
2021/06/18 00:12:50;;;;;;;8.08;4.95;;;;;;;16.11;61.35;101203.91;1741072;79;27496;-77
2021/06/18 00:15:18;;;;;;;7.47;6.37;;;;;;;16.06;61.59;101202.34;1749329;81;25762;-76
2021/06/18 00:17:46;;;;;;;5.75;5.15;;;;;;;16.02;61.43;101206.50;1722588;81;25814;-77
2021/06/18 00:20:14;;;;;;;7.87;5.72;;;;;;;15.93;61.71;101204.52;1755153;81;26071;-77
2021/06/18 00:22:44;;;;;;;9.20;5.87;;;;;;;15.89;61.97;101209.19;1718998;81;25831;-77
2021/06/18 00:25:12;;;;;;;8.15;5.15;;;;;;;15.84;62.04;101213.05;1738829;81;27572;-77
2021/06/18 00:27:40;;;;;;;6.55;5.45;;;;;;;15.78;62.10;101205.77;1703012;81;25751;-77
2021/06/18 00:30:09;;;;;;;5.85;5.08;;;;;;;15.74;62.29;101210.73;1755332;81;25902;-76
2021/06/18 00:32:36;;;;;;;6.47;5.87;;;;;;;15.73;62.52;101206.89;1730200;81;26132;-76
2021/06/18 00:35:04;;;;;;;7.53;5.45;;;;;;;15.68;62.66;101202.10;1746767;81;25744;-76
2021/06/18 00:37:33;;;;;;;7.00;5.80;;;;;;;15.69;62.80;101202.94;1701060;81;27547;-76
2021/06/18 00:40:00;;;;;;;6.85;5.72;;;;;;;15.70;62.74;101193.78;1746123;81;26459;-76
2021/06/18 00:42:27;;;;;;;7.65;5.60;;;;;;;15.69;62.73;101195.68;1697169;82;25897;-76
2021/06/18 00:44:54;;;;;;;5.85;5.25;;;;;;;15.69;62.71;101188.92;1734332;81;26619;-76
2021/06/18 00:47:23;;;;;;;7.90;5.65;;;;;;;15.66;62.77;101197.42;1681183;82;25734;-77
2021/06/18 00:49:52;;;;;;;6.47;5.80;;;;;;;15.65;62.82;101194.43;1742960;81;27602;-77
2021/06/18 00:52:20;;;;;;;5.95;5.30;;;;;;;15.63;62.93;101191.07;1690329;82;26445;-76
2021/06/18 00:54:47;;;;;;;5.37;4.87;;;;;;;15.62;63.20;101193.48;1704727;82;25882;-76
2021/06/18 00:57:15;;;;;;;6.65;5.72;;;;;;;15.59;62.92;101190.37;1716276;80;26134;-77
2021/06/18 00:59:42;;;;;;;9.75;6.60;;;;;;;15.55;63.03;101190.43;1740486;81;25958;-76
2021/06/18 01:02:09;;;;;;;7.75;6.30;;;;;;;15.51;63.16;101184.62;1666288;83;27649;-76
2021/06/18 01:04:37;;;;;;;10.50;6.25;;;;;;;15.52;63.15;101183.60;1711740;82;26633;-76
2021/06/18 01:07:22;;;;;;;7.45;5.55;;;;;;;15.51;63.29;101179.22;1731032;81;25927;-76
2021/06/18 01:10:29;;;;;;;11.00;6.00;;;;;;;15.53;63.17;101183.06;1722500;81;26448;-76
2021/06/18 01:13:20;;;;;;;6.17;5.22;;;;;;;15.55;63.11;101183.69;1718082;81;26433;-76
2021/06/18 01:16:07;;;;;;;9.95;7.17;;;;;;;15.54;63.07;101177.98;1737791;81;28348;-76
2021/06/18 01:18:45;;;;;;;8.30;7.00;;;;;;;15.54;63.19;101183.38;1717545;81;25888;-76
2021/06/18 01:21:21;;;;;;;7.70;6.30;;;;;;;15.51;63.31;101171.12;1751888;81;25819;-76
2021/06/18 01:24:30;;;;;;;9.78;6.90;;;;;;;15.51;63.41;101171.12;1707109;82;26112;-76
2021/06/18 01:27:15;;;;;;;7.35;6.20;;;;;;;15.49;63.44;101166.45;1733305;81;25815;-76
2021/06/18 01:29:51;;;;;;;10.72;6.75;;;;;;;15.48;63.69;101171.55;1706562;81;27394;-76
2021/06/18 01:32:29;;;;;;;7.58;6.78;;;;;;;15.45;63.73;101162.50;1729580;81;25828;-76
2021/06/18 01:34:58;;;;;;;6.70;6.00;;;;;;;15.42;63.75;101165.05;1707030;82;26374;-76
2021/06/18 01:37:29;;;;;;;9.65;6.10;;;;;;;15.40;63.84;101160.88;1732723;79;26006;-76
2021/06/18 01:40:01;;;;;;;9.90;6.80;;;;;;;15.37;63.82;101159.45;1704270;81;25829;-77
2021/06/18 01:42:30;;;;;;;8.90;6.85;;;;;;;15.33;63.95;101156.01;1729819;81;27461;-76
2021/06/18 01:44:58;;;;;;;9.63;6.25;;;;;;;15.24;63.96;101161.27;1758956;81;25844;-76
2021/06/18 01:47:25;;;;;;;9.20;7.15;;;;;;;15.20;64.19;101161.37;1728137;81;25979;-76
2021/06/18 01:49:54;;;;;;;7.62;5.87;;;;;;;15.18;64.35;101165.59;1695116;81;25794;-76
2021/06/18 01:52:22;;;;;;;8.93;6.10;;;;;;;15.15;64.37;101169.23;1751375;81;25775;-76
2021/06/18 01:54:52;;;;;;;7.05;6.35;;;;;;;15.13;64.26;101161.86;1720504;81;27441;-76
2021/06/18 01:57:22;;;;;;;8.65;6.85;;;;;;;15.10;64.20;101161.73;1751661;81;25831;-76
2021/06/18 01:59:52;;;;;;;7.90;6.87;;;;;;;15.06;64.40;101159.13;1701675;81;25887;-76
2021/06/18 02:02:22;;;;;;;8.05;6.80;;;;;;;15.03;64.53;101167.65;1753882;81;25773;-76
2021/06/18 02:04:49;;;;;;;8.65;6.60;;;;;;;15.02;64.67;101168.67;1704696;81;26109;-76
2021/06/18 02:07:17;;;;;;;6.90;6.33;;;;;;;15.03;64.80;101169.00;1751370;81;27479;-76
2021/06/18 02:09:47;;;;;;;8.20;7.35;;;;;;;15.00;64.78;101166.69;1724279;81;26607;-76
2021/06/18 02:12:17;;;;;;;12.28;7.65;;;;;;;14.98;64.80;101164.72;1754535;81;26010;-76
2021/06/18 02:14:45;;;;;;;10.95;7.10;;;;;;;14.96;64.86;101160.03;1726343;81;26545;-76
2021/06/18 02:17:14;;;;;;;9.68;6.70;;;;;;;14.95;64.90;101164.30;1719817;81;25879;-76
2021/06/18 02:19:46;;;;;;;8.85;6.97;;;;;;;14.94;64.86;101161.27;1703271;81;27417;-77
2021/06/18 02:22:13;;;;;;;8.75;7.45;;;;;;;14.92;65.02;101166.88;1751730;81;25540;-76
2021/06/18 02:24:42;;;;;;;8.35;7.35;;;;;;;14.87;65.24;101167.98;1705111;81;25973;-77
2021/06/18 02:27:14;;;;;;;8.43;7.53;;;;;;;14.78;65.40;101173.22;1724203;81;26012;-76
2021/06/18 02:29:42;;;;;;;9.95;7.12;;;;;;;14.71;65.56;101170.19;1711705;81;25834;-76
2021/06/18 02:32:13;;;;;;;8.93;6.95;;;;;;;14.70;65.70;101165.30;1755727;80;28227;-76
2021/06/18 02:34:40;;;;;;;12.93;7.50;;;;;;;14.68;65.62;101166.02;1755352;81;25840;-76
2021/06/18 02:37:11;;;;;;;11.30;7.97;;;;;;;14.70;65.90;101176.09;1743739;81;26513;-76
2021/06/18 02:39:39;;;;;;;15.40;7.65;;;;;;;14.68;66.05;101172.77;1695524;81;26540;-76
2021/06/18 02:42:06;;;;;;;9.20;7.37;;;;;;;14.66;66.33;101182.41;1690269;81;25912;-77
2021/06/18 02:44:33;;;;;;;12.20;7.97;;;;;;;14.61;66.21;101176.77;1708029;82;28264;-76
2021/06/18 02:47:27;;;;;;;8.55;7.67;;;;;;;14.64;66.52;101175.03;1707378;82;25884;-76
2021/06/18 02:50:12;;;;;;;12.07;7.80;;;;;;;14.67;66.63;101173.27;1735183;81;26343;-76
2021/06/18 02:52:59;;;;;;;10.48;7.67;;;;;;;14.72;66.75;101171.84;1689538;81;26620;-76
2021/06/18 02:55:46;;;;;;;9.68;8.03;;;;;;;14.77;66.80;101178.31;1743203;81;25763;-76
2021/06/18 02:58:42;;;;;;;9.25;7.58;;;;;;;14.79;66.72;101176.25;1685748;81;27641;-76
2021/06/18 03:01:10;;;;;;;10.15;7.47;;;;;;;14.82;66.72;101177.72;1738588;81;25699;-76
2021/06/18 03:03:44;;;;;;;11.93;8.15;;;;;;;14.83;66.59;101174.81;1698954;82;25860;-76
2021/06/18 03:06:15;;;;;;;9.25;8.15;;;;;;;14.86;66.72;101176.28;1733911;81;26156;-76
2021/06/18 03:09:02;;;;;;;10.98;7.87;;;;;;;14.88;66.89;101183.14;1716510;81;25766;-76
2021/06/18 03:11:32;;;;;;;10.85;7.90;;;;;;;14.90;66.92;101184.28;1744045;81;28306;-77
2021/06/18 03:14:03;;;;;;;13.93;8.95;;;;;;;14.91;67.06;101186.77;1683668;81;26557;-76
2021/06/18 03:16:32;;;;;;;10.63;8.43;;;;;;;14.95;67.02;101192.08;1714791;81;25881;-76
2021/06/18 03:19:03;;;;;;;11.68;8.90;;;;;;;15.05;67.14;101188.52;1715548;81;25845;-76
2021/06/18 03:21:34;;;;;;;11.50;8.73;;;;;;;15.13;67.15;101188.84;1742521;81;25774;-76
2021/06/18 03:24:03;;;;;;;12.25;8.23;;;;;;;15.22;66.97;101186.28;1686616;81;28200;-76
2021/06/18 03:26:31;;;;;;;12.55;8.65;;;;;;;15.31;66.93;101187.23;1731750;81;25742;-76
2021/06/18 03:28:59;;;;;;;11.68;8.70;;;;;;;15.44;66.82;101185.95;1739874;81;25778;-76
2021/06/18 03:31:28;;;;;;;10.78;9.40;;;;;;;15.56;66.70;101182.15;1738731;81;25842;-76
2021/06/18 03:33:57;;;;;;;12.65;8.93;;;;;;;15.68;66.62;101180.50;1715654;81;26606;-77
2021/06/18 03:36:25;;;;;;;10.13;8.63;;;;;;;15.80;66.49;101184.23;1688398;81;27615;-77
2021/06/18 03:38:54;;;;;;;12.93;9.48;;;;;;;15.90;66.41;101187.39;1713965;81;25867;-77
2021/06/18 03:41:22;;;;;;;12.75;8.80;;;;;;;15.99;66.34;101183.45;1741354;81;25938;-77
2021/06/18 03:43:52;;;;;;;13.35;8.58;;;;;;;16.07;66.45;101179.69;1722108;80;25782;-76
2021/06/18 03:46:19;;;;;;;12.90;9.88;;;;;;;16.13;66.43;101183.74;1735370;81;25944;-77
2021/06/18 03:48:47;;;;;;;13.55;8.83;;;;;;;16.19;66.58;101184.77;1719340;81;28171;-76
2021/06/18 03:51:16;;;;;;;10.78;8.93;;;;;;;16.24;66.48;101197.15;1709622;83;25510;-77
2021/06/18 03:53:43;;;;;;;11.30;7.72;;;;;;;16.29;66.68;101198.72;1683808;82;26034;-77
2021/06/18 03:56:12;;;;;;;10.70;8.60;;;;;;;16.33;66.79;101197.25;1728526;80;25727;-76
2021/06/18 03:58:41;;;;;;;11.08;7.67;;;;;;;16.36;66.82;101205.47;1724164;82;25838;-76
2021/06/18 04:01:12;;;;;;;11.80;8.20;;;;;;;16.38;66.81;101202.84;1741192;81;27441;-77
2021/06/18 04:03:47;;;;;;;11.55;7.95;;;;;;;16.46;66.91;101199.10;1719318;81;25907;-76
2021/06/18 04:06:16;;;;;;;10.45;7.85;;;;;;;16.58;66.96;101202.84;1711235;82;26552;-76
2021/06/18 04:08:44;;;;;;;11.83;8.03;;;;;;;16.67;66.92;101194.83;1718873;81;25745;-77
2021/06/18 04:11:11;;;;;;;14.20;7.10;;;;;;;16.78;67.09;101195.02;1752340;80;25744;-76
2021/06/18 04:13:40;;;;;;;9.35;7.03;;;;;;;16.89;67.25;101191.62;1656794;84;28207;-77
2021/06/18 04:16:08;;;;;;;11.00;7.42;;;;;;;17.04;67.20;101192.73;1692452;83;26028;-77
2021/06/18 04:18:42;;;;;;;11.20;7.08;;;;;;;17.16;67.09;101192.36;1717205;82;25769;-77
2021/06/18 04:21:19;;;;;;;10.25;7.25;;;;;;;17.31;67.39;101190.20;1738388;81;25774;-77
2021/06/18 04:23:47;;;;;;;8.10;7.20;;;;;;;17.45;67.31;101193.14;1679816;82;25593;-77
2021/06/18 04:26:15;;;;;;;10.78;7.50;;;;;;;17.57;67.46;101190.61;1704082;82;27552;-77
2021/06/18 04:28:42;;;;;;;9.88;7.03;;;;;;;17.65;67.55;101187.13;1711839;82;25842;-77
2021/06/18 04:31:09;;;;;;;9.78;6.72;;;;;;;17.77;67.54;101196.71;1698113;82;26000;-77
2021/06/18 04:33:37;;;;;;;12.85;7.58;;;;;;;17.87;67.47;101191.66;1734261;81;25871;-77
2021/06/18 04:36:05;;;;;;;12.35;7.80;;;;;;;17.98;67.58;101187.41;1714551;81;26608;-77
2021/06/18 04:38:32;;;;;;;13.48;7.67;;;;;;;18.11;67.53;101182.69;1716270;81;27482;-77
2021/06/18 04:40:59;;;;;;;8.23;7.35;;;;;;;18.22;67.34;101178.45;1720091;81;26102;-77
2021/06/18 04:43:26;;;;;;;11.03;7.78;;;;;;;18.33;66.96;101182.59;1695847;82;26501;-77
2021/06/18 04:45:53;;;;;;;10.98;8.38;;;;;;;18.48;66.58;101184.47;1728040;80;25598;-77
2021/06/18 04:48:20;;;;;;;16.07;9.65;;;;;;;18.64;66.14;101185.77;1736422;80;26559;-77
2021/06/18 04:50:47;;;;;;;13.45;8.33;;;;;;;18.81;66.21;101188.19;1718001;82;27569;-77
2021/06/18 04:53:15;;;;;;;9.90;8.20;;;;;;;18.98;65.75;101187.88;1707944;81;26566;-77
2021/06/18 04:55:42;;;;;;;12.98;8.33;;;;;;;19.11;65.60;101188.25;1713376;81;25865;-77
2021/06/18 04:58:11;;;;;;;13.43;8.33;;;;;;;19.26;65.27;101187.31;1726593;81;25809;-77
2021/06/18 05:00:38;;;;;;;9.58;7.78;;;;;;;19.42;65.11;101183.98;1725824;81;25936;-77
2021/06/18 05:03:05;;;;;;;14.83;7.72;;;;;;;19.56;64.59;101181.91;1696268;81;27281;-77
2021/06/18 05:05:32;;;;;;;9.60;7.15;;;;;;;19.68;63.98;101182.77;1713410;82;26577;-76
2021/06/18 05:08:00;;;;;;;8.88;6.65;;;;;;;19.80;63.70;101180.38;1736789;80;25921;-76
2021/06/18 05:10:27;;;;;;;8.45;6.58;;;;;;;19.95;63.06;101173.16;1747245;81;26180;-77
2021/06/18 05:12:54;;;;;;;10.95;6.20;;;;;;;20.08;63.41;101178.34;1704694;81;25804;-77
2021/06/18 05:15:21;;;;;;;11.38;6.58;;;;;;;20.23;62.79;101173.31;1735572;81;28394;-77
2021/06/18 05:17:49;;;;;;;10.30;6.12;;;;;;;20.36;62.54;101177.16;1725321;81;25850;-77
2021/06/18 05:20:16;;;;;;;8.98;6.92;;;;;;;20.49;62.72;101178.28;1752555;80;25669;-77
2021/06/18 05:22:43;;;;;;;9.83;6.80;;;;;;;20.60;62.92;101181.53;1658898;82;26157;-77
2021/06/18 05:25:12;;;;;;;11.93;7.10;;;;;;;20.73;62.09;101177.20;1704326;80;25824;-77
2021/06/18 05:27:39;;;;;;;10.03;6.10;;;;;;;20.86;61.43;101180.72;1721571;80;28171;-77
2021/06/18 05:30:09;;;;;;;10.08;6.05;;;;;;;20.96;61.10;101183.13;1756978;80;25997;-77
2021/06/18 05:32:36;;;;;;;10.45;5.55;;;;;;;21.09;60.82;101176.60;1699760;82;25810;-77
2021/06/18 05:35:05;;;;;;;8.45;5.45;;;;;;;21.20;60.74;101180.66;1722823;81;25882;-76
2021/06/18 05:37:32;;;;;;;10.15;5.90;;;;;;;21.31;61.29;101183.05;1720763;81;25841;-77
2021/06/18 05:39:59;;;;;;;12.03;6.37;;;;;;;21.44;61.26;101178.67;1724755;81;28654;-77
2021/06/18 05:42:26;;;;;;;8.60;6.03;;;;;;;21.57;60.01;101180.27;1763251;79;26521;-76
2021/06/18 05:44:53;;;;;;;10.28;5.80;;;;;;;21.67;59.87;101167.65;1759428;80;26027;-77
2021/06/18 05:47:20;;;;;;;9.38;5.90;;;;;;;21.79;59.74;101166.23;1732356;79;26584;-77
2021/06/18 05:49:47;;;;;;;8.20;5.37;;;;;;;21.89;58.95;101167.26;1752382;81;25796;-77
2021/06/18 05:52:14;;;;;;;6.55;4.60;;;;;;;21.98;59.37;101168.48;1717880;81;28409;-76
2021/06/18 05:54:41;;;;;;;9.15;4.85;;;;;;;22.07;59.10;101172.45;1719541;81;25769;-77
2021/06/18 05:57:08;;;;;;;8.45;5.12;;;;;;;22.19;59.33;101177.84;1722059;81;25747;-77
2021/06/18 05:59:35;;;;;;;6.87;4.95;;;;;;;22.28;59.43;101174.42;1762702;81;25822;-76
2021/06/18 06:02:03;;;;;;;8.73;5.25;;;;;;;22.39;59.29;101177.33;1702815;82;26159;-77
2021/06/18 06:04:30;;;;;;;10.10;4.85;;;;;;;22.51;58.52;101172.58;1738923;81;27442;-76
2021/06/18 06:06:57;;;;;;;6.62;4.53;;;;;;;22.61;58.27;101175.48;1725507;81;25845;-76
2021/06/18 06:09:24;;;;;;;6.80;4.85;;;;;;;22.70;58.06;101176.17;1750942;81;25303;-77
2021/06/18 06:11:51;;;;;;;6.87;4.83;;;;;;;22.82;57.47;101178.77;1708017;81;25849;-77
2021/06/18 06:14:19;;;;;;;9.73;5.08;;;;;;;22.91;57.65;101170.42;1714432;82;25774;-76
2021/06/18 06:16:46;;;;;;;5.67;4.62;;;;;;;23.02;57.52;101168.11;1754149;81;27459;-77
2021/06/18 06:19:14;;;;;;;7.62;5.00;;;;;;;23.13;56.45;101169.89;1724334;81;25721;-77
2021/06/18 06:21:43;;;;;;;7.45;4.87;;;;;;;23.21;56.22;101163.97;1752575;81;25856;-77
2021/06/18 06:24:12;;;;;;;7.97;4.28;;;;;;;23.31;55.91;101164.07;1698831;81;26536;-77
2021/06/18 06:26:40;;;;;;;7.78;4.62;;;;;;;23.40;55.63;101167.20;1743620;81;25851;-77
2021/06/18 06:29:07;;;;;;;5.33;4.42;;;;;;;23.51;55.02;101169.80;1743741;81;27679;-77
2021/06/18 06:31:34;;;;;;;11.33;4.67;;;;;;;23.59;55.59;101167.95;1715981;81;26403;-77
2021/06/18 06:34:01;;;;;;;8.68;5.03;;;;;;;23.69;56.09;101164.52;1686185;82;25978;-77
2021/06/18 06:36:29;;;;;;;6.78;4.40;;;;;;;23.79;55.28;101163.23;1755032;79;26432;-77
2021/06/18 06:38:56;;;;;;;6.42;4.53;;;;;;;23.89;55.73;101163.30;1694589;82;25852;-77
2021/06/18 06:41:23;;;;;;;6.25;4.67;;;;;;;24.00;55.98;101169.69;1706049;82;27583;-77
2021/06/18 06:43:50;;;;;;;8.23;4.58;;;;;;;24.08;54.89;101168.69;1678237;82;25375;-77
2021/06/18 06:46:20;;;;;;;7.72;3.92;;;;;;;24.17;54.67;101175.34;1731115;82;26558;-76
2021/06/18 06:48:48;;;;;;;6.15;4.15;;;;;;;24.26;54.31;101171.03;1711590;82;26218;-77
2021/06/18 06:51:16;;;;;;;6.65;3.92;;;;;;;24.37;54.46;101177.41;1711039;81;26672;-77
2021/06/18 06:53:43;;;;;;;6.60;4.12;;;;;;;24.46;54.49;101168.98;1685430;82;27554;-77
2021/06/18 06:56:11;;;;;;;6.00;4.85;;;;;;;24.58;54.18;101168.22;1745345;81;25927;-78
2021/06/18 06:58:39;;;;;;;9.55;4.10;;;;;;;24.68;53.58;101164.73;1724089;82;26651;-78
2021/06/18 07:01:06;;;;;;;7.87;4.33;;;;;;;24.75;54.04;101170.27;1708670;81;26203;-77
2021/06/18 07:03:33;;;;;;;12.65;4.90;;;;;;;24.86;54.11;101166.48;1720195;81;25831;-77
2021/06/18 07:06:00;;;;;;;5.97;3.85;;;;;;;24.97;53.95;101162.70;1737507;81;27461;-77
2021/06/18 07:08:27;;;;;;;6.37;4.08;;;;;;;25.07;53.28;101168.22;1714897;81;26564;-77
2021/06/18 07:10:54;;;;;;;9.68;4.20;;;;;;;25.15;53.16;101158.63;1727714;81;25916;-77
2021/06/18 07:13:22;;;;;;;9.93;4.25;;;;;;;25.25;52.90;101155.95;1718574;81;26291;-78
2021/06/18 07:15:53;;;;;;;4.45;4.05;;;;;;;25.36;52.82;101156.25;1747190;81;26065;-78
2021/06/18 07:18:20;;;;;;;7.40;3.72;;;;;;;25.46;52.64;101152.19;1720555;81;27516;-78
2021/06/18 07:20:47;;;;;;;4.28;3.65;;;;;;;25.55;52.64;101147.81;1719935;81;25986;-79
2021/06/18 07:23:14;;;;;;;6.70;4.00;;;;;;;25.62;51.86;101146.18;1723593;81;25812;-79
2021/06/18 07:25:43;;;;;;;4.78;4.22;;;;;;;25.67;51.86;101148.91;1742351;81;26099;-78
2021/06/18 07:28:11;;;;;;;11.90;3.98;;;;;;;25.76;51.76;101142.63;1676574;82;25863;-78
2021/06/18 07:30:39;;;;;;;7.97;3.27;;;;;;;25.85;51.92;101144.27;1721817;81;28195;-78
2021/06/18 07:33:08;;;;;;;10.30;4.17;;;;;;;25.92;51.24;101139.31;1670419;82;26046;-78
2021/06/18 07:35:35;;;;;;;4.42;3.70;;;;;;;25.99;51.86;101135.20;1748722;81;26745;-77
2021/06/18 07:38:03;;;;;;;5.47;4.33;;;;;;;26.09;50.44;101133.02;1749064;81;25610;-78
2021/06/18 07:40:30;;;;;;;9.68;3.80;;;;;;;26.14;50.01;101130.27;1746637;80;25899;-78
2021/06/18 07:42:58;;;;;;;5.40;3.85;;;;;;;26.21;50.56;101132.73;1750670;79;27915;-78
2021/06/18 07:45:25;;;;;;;4.12;3.72;;;;;;;26.28;50.74;101128.59;1734728;80;26442;-77
2021/06/18 07:47:52;;;;;;;4.80;3.85;;;;;;;26.34;49.77;101133.54;1739029;81;25843;-77
2021/06/18 07:50:22;;;;;;;5.72;3.35;;;;;;;26.38;49.41;101129.13;1740825;81;26534;-78
2021/06/18 07:52:50;;;;;;;10.13;4.33;;;;;;;26.45;49.46;101129.09;1700184;81;25817;-78
2021/06/18 07:55:20;;;;;;;5.50;4.70;;;;;;;26.56;49.15;101126.59;1750091;81;27462;-78
2021/06/18 07:57:48;;;;;;;12.68;7.00;;;;;;;26.63;48.97;101124.39;1702597;82;26588;-78
2021/06/18 08:00:16;;;;;;;7.05;3.75;;;;;;;26.71;49.04;101122.97;1741068;81;26574;-78
2021/06/18 08:02:44;;;;;;;8.53;4.03;;;;;;;26.79;48.29;101129.86;1697386;81;25696;-78
2021/06/18 08:05:11;;;;;;;4.70;3.33;;;;;;;26.84;48.49;101127.10;1751438;81;25823;-80
2021/06/18 08:07:40;;;;;;;8.18;3.85;;;;;;;26.93;48.53;101136.38;1704903;81;27618;-77
2021/06/18 08:10:10;;;;;;;6.30;4.12;;;;;;;27.01;48.30;101135.24;1744174;81;26183;-78
2021/06/18 08:12:43;;;;;;;4.62;3.65;;;;;;;27.09;48.55;101129.18;1697153;81;25873;-78
2021/06/18 08:15:12;;;;;;;7.47;3.67;;;;;;;27.16;48.05;101126.13;1742897;81;26779;-79
2021/06/18 08:17:39;;;;;;;5.22;3.58;;;;;;;27.22;47.93;101122.23;1702810;81;25349;-77
2021/06/18 08:20:08;;;;;;;8.23;3.80;;;;;;;27.28;47.25;101117.78;1739129;81;27520;-76
2021/06/18 08:22:35;;;;;;;5.33;3.77;;;;;;;27.32;47.12;101118.86;1748220;81;25960;-77
2021/06/18 08:25:03;;;;;;;7.15;4.15;;;;;;;27.36;47.02;101124.09;1744750;81;25857;-77
2021/06/18 08:27:30;;;;;;;5.20;3.77;;;;;;;27.40;47.08;101118.28;1746390;81;25892;-77
2021/06/18 08:29:59;;;;;;;5.12;3.50;;;;;;;27.46;47.80;101119.88;1697325;81;25764;-77
2021/06/18 08:32:27;;;;;;;11.93;4.60;;;;;;;27.53;47.32;101114.06;1691891;81;27395;-77
2021/06/18 08:34:54;;;;;;;5.05;3.83;;;;;;;27.61;47.62;101116.19;1755332;81;26040;-77
2021/06/18 08:37:21;;;;;;;7.05;3.83;;;;;;;27.69;46.54;101112.84;1742096;79;26606;-77
2021/06/18 08:39:48;;;;;;;6.67;3.95;;;;;;;27.75;46.50;101115.83;1738913;81;26228;-77
2021/06/18 08:42:15;;;;;;;4.55;3.83;;;;;;;27.76;46.33;101118.03;1720480;81;25886;-76
2021/06/18 08:44:45;;;;;;;4.55;3.37;;;;;;;27.78;46.26;101117.98;1748860;79;27762;-77
2021/06/18 08:47:10;;;;;;;7.83;3.90;;;;;;;27.85;46.20;101114.89;1701168;81;25852;-76
2021/06/18 08:49:38;;;;;;;4.37;3.25;;;;;;;27.92;45.99;101115.39;1739332;81;25929;-76
2021/06/18 08:52:05;;;;;;;8.28;3.80;;;;;;;27.99;45.86;101111.80;1690664;81;26288;-76
2021/06/18 08:54:42;;;;;;;6.72;3.30;;;;;;;28.02;45.11;101112.57;1738218;81;26455;-76
2021/06/18 08:57:17;;;;;;;4.72;3.22;;;;;;;28.04;45.07;101112.55;1697528;81;27000;-76
2021/06/18 08:59:44;;;;;;;5.37;3.67;;;;;;;28.09;45.26;101111.69;1737303;81;25361;-75
2021/06/18 09:02:12;;;;;;;6.50;3.50;;;;;;;28.14;44.50;101104.77;1681125;81;25847;-76
2021/06/18 09:05:13;;;;;;;5.47;3.83;;;;;;;28.16;44.23;101095.64;1731569;81;25837;-77
2021/06/18 09:08:00;;;;;;;4.78;3.47;;;;;;;28.18;43.65;101094.25;1742371;81;26165;-77
2021/06/18 09:10:40;;;;;;;4.05;3.60;;;;;;;28.21;44.04;101088.69;1728134;81;27611;-76
2021/06/18 09:13:23;;;;;;;7.42;3.95;;;;;;;28.27;44.56;101101.87;1701014;81;25853;-76
2021/06/18 09:15:54;;;;;;;6.72;2.90;;;;;;;28.35;44.27;101099.30;1732122;81;25778;-77
2021/06/18 09:18:36;;;;;;;6.53;3.40;;;;;;;28.40;43.65;101096.47;1709319;81;25832;-77
2021/06/18 09:21:15;;;;;;;7.10;3.47;;;;;;;28.47;44.15;101094.19;1721628;81;25896;-77
2021/06/18 09:23:49;;;;;;;5.12;3.45;;;;;;;28.54;44.15;101093.28;1694857;81;28185;-76
2021/06/18 09:26:37;;;;;;;7.28;3.70;;;;;;;28.61;43.76;101097.10;1730868;81;26388;-76
2021/06/18 09:29:18;;;;;;;3.90;3.10;;;;;;;28.64;43.31;101095.11;1727130;81;25923;-77
2021/06/18 09:31:59;;;;;;;3.72;3.30;;;;;;;28.69;43.76;101097.27;1726359;81;25926;-77
2021/06/18 09:34:47;;;;;;;3.00;2.67;;;;;;;28.76;43.21;101104.60;1738179;81;25787;-76
2021/06/18 09:37:23;;;;;;;5.70;3.33;;;;;;;28.83;42.95;101095.97;1729618;81;27551;-77
2021/06/18 09:40:07;;;;;;;5.62;3.25;;;;;;;28.88;41.53;101097.30;1713327;82;26113;-76
2021/06/18 09:42:37;;;;;;;4.55;2.87;;;;;;;28.92;42.31;101099.72;1756967;79;25884;-76
2021/06/18 09:45:12;;;;;;;;;;;;;;;28.95;42.08;101093.63;1742804;79;26237;-76
2021/06/18 09:47:40;;;;;;;5.97;3.50;;;;;;;28.95;41.50;101091.70;1766158;79;25792;-77
2021/06/18 09:50:29;;;;;;;4.60;3.10;;;;;;;29.00;42.41;101086.09;1701173;82;27643;-76
2021/06/18 09:53:21;;;;;;;4.10;2.92;;;;;;;29.10;42.59;101082.93;1748256;81;26045;-77
2021/06/18 09:56:02;;;;;;;4.20;3.33;;;;;;;29.17;42.01;101071.80;1747619;81;26704;-76
2021/06/18 09:58:36;;;;;;;8.38;3.37;;;;;;;29.20;41.44;101072.59;1725475;79;25825;-77
2021/06/18 10:01:25;;;;;;;4.30;3.27;;;;;;;29.24;42.21;101070.87;1732890;81;25886;-77
2021/06/18 10:04:14;;;;;;;7.08;4.33;;;;;;;29.28;41.72;101069.70;1751561;80;28135;-76
2021/06/18 10:06:42;;;;;;;6.05;3.40;;;;;;;29.36;41.94;101060.77;1711878;81;26557;-76
2021/06/18 10:09:14;;;;;;;8.75;3.65;;;;;;;29.42;41.44;101049.35;1754773;81;26499;-76
2021/06/18 10:11:43;;;;;;;4.40;3.25;;;;;;;29.47;41.67;101052.01;1726926;81;26262;-76
2021/06/18 10:14:11;;;;;;;7.05;3.02;;;;;;;29.52;41.38;101055.25;1748993;81;25300;-76
2021/06/18 10:16:39;;;;;;;6.03;3.00;;;;;;;29.55;40.68;101058.80;1722858;81;27296;-76
2021/06/18 10:19:07;;;;;;;6.40;3.17;;;;;;;29.58;40.90;101059.56;1735565;81;25906;-76
2021/06/18 10:21:57;;;;;;;3.35;3.08;;;;;;;29.59;40.31;101052.38;1718236;81;25771;-76
2021/06/18 10:24:26;;;;;;;;;;;;;;;29.63;39.88;101047.06;1746499;81;26226;-76
2021/06/18 10:26:54;;;;;;;4.20;2.70;;;;;;;29.69;40.48;101045.29;1706410;81;25780;-76
2021/06/18 10:29:40;;;;;;;3.30;3.00;;;;;;;29.71;40.37;101044.42;1742839;81;27643;-76
2021/06/18 10:32:31;;;;;;;5.92;3.20;;;;;;;29.79;39.75;101044.30;1725449;81;25732;-76
2021/06/18 10:35:01;;;;;;;5.92;3.25;;;;;;;29.87;40.31;101036.73;1745345;81;25725;-77
2021/06/18 10:37:32;;;;;;;4.45;2.75;;;;;;;29.94;39.27;101039.89;1736777;81;26208;-77
2021/06/18 10:40:10;;;;;;;5.20;3.00;;;;;;;30.01;40.08;101042.25;1716717;81;25772;-77
2021/06/18 10:42:37;;;;;;;29.72;20.15;;;;;;;30.03;40.19;101031.16;1720313;82;28165;-76
2021/06/18 10:45:06;;;;;;;9.98;7.22;;;;;;;30.13;39.96;101031.53;1749257;81;25884;-76
2021/06/18 10:47:43;;;;;;;3.77;3.37;;;;;;;30.24;39.97;101030.22;1705770;81;25345;-76
2021/06/18 10:50:09;;;;;;;3.83;3.27;;;;;;;30.27;38.79;101027.64;1712762;81;25764;-77
2021/06/18 10:52:40;;;;;;;7.80;3.35;;;;;;;30.32;39.53;101027.59;1710187;82;25892;-76
2021/06/18 10:55:08;;;;;;;4.22;3.50;;;;;;;30.38;38.59;101032.44;1732628;81;27628;-77
2021/06/18 10:57:40;;;;;;;6.58;2.98;;;;;;;30.39;37.59;101034.05;1713046;81;25778;-76
2021/06/18 11:00:20;;;;;;;9.28;3.70;;;;;;;30.39;39.06;101024.38;1735097;81;25937;-76
2021/06/18 11:02:48;;;;;;;7.65;4.87;;;;;;;30.43;38.77;101019.31;1718061;81;25793;-76
2021/06/18 11:05:28;;;;;;;9.65;4.40;;;;;;;30.50;38.03;101031.92;1732649;81;25825;-77
2021/06/18 11:08:20;;;;;;;16.80;5.83;;;;;;;30.55;38.60;101026.27;1716203;81;27564;-76
2021/06/18 11:10:49;;;;;;;8.18;4.08;;;;;;;30.58;37.01;101026.49;1682918;83;26765;-77
2021/06/18 11:13:18;;;;;;;4.80;4.40;;;;;;;30.61;37.97;101024.47;1710602;82;25838;-76
2021/06/18 11:15:46;;;;;;;5.17;3.42;;;;;;;30.69;38.13;101024.32;1726783;82;25827;-77
2021/06/18 11:18:21;;;;;;;8.68;5.08;;;;;;;30.78;38.30;101021.05;1676996;82;25860;-77
2021/06/18 11:20:51;;;;;;;8.63;4.50;;;;;;;30.84;37.97;101026.16;1734214;81;27031;-77
2021/06/18 11:23:30;;;;;;;6.65;3.77;;;;;;;30.88;36.95;101016.14;1720276;81;26567;-77
2021/06/18 11:26:01;;;;;;;9.75;3.20;;;;;;;30.92;36.56;101013.03;1733526;81;25823;-77
2021/06/18 11:28:36;;;;;;;6.60;3.52;;;;;;;30.90;37.11;101012.49;1698868;81;25892;-76
2021/06/18 11:31:17;;;;;;;5.08;3.35;;;;;;;30.95;36.43;101015.16;1727169;81;26015;-76
2021/06/18 11:33:54;;;;;;;5.28;3.10;;;;;;;30.99;36.60;101012.01;1714606;81;27506;-76
2021/06/18 11:36:31;;;;;;;7.97;4.15;;;;;;;31.02;36.33;101005.04;1732088;81;26515;-76
2021/06/18 11:39:09;;;;;;;7.92;4.35;;;;;;;31.08;36.44;101010.70;1734302;81;26416;-76
2021/06/18 11:41:40;;;;;;;5.55;3.50;;;;;;;31.12;35.87;100998.69;1750278;80;26385;-77